sensor_id;sensor_type;location;lat;lon;timestamp;pressure;altitude;pressure_sealevel;temperature;humidity
49567;BME280;35472;50.514;30.448;2022-08-11T00:01:54;100315.88;;;18.67;100.00
49567;BME280;35472;50.514;30.448;2022-08-11T00:04:23;100312.84;;;18.69;100.00
49567;BME280;35472;50.514;30.448;2022-08-11T00:06:49;100307.31;;;18.78;100.00
49567;BME280;35472;50.514;30.448;2022-08-11T00:09:18;100295.53;;;18.63;100.00
49567;BME280;35472;50.514;30.448;2022-08-11T00:11:48;100289.47;;;18.84;100.00
49567;BME280;35472;50.514;30.448;2022-08-11T00:16:52;100285.91;;;18.52;100.00
49567;BME280;35472;50.514;30.448;2022-08-11T00:19:21;100271.41;;;18.46;100.00
49567;BME280;35472;50.514;30.448;2022-08-11T00:21:48;100275.78;;;18.39;100.00
49567;BME280;35472;50.514;30.448;2022-08-11T00:24:15;100291.97;;;18.63;100.00
49567;BME280;35472;50.514;30.448;2022-08-11T00:26:46;100291.31;;;18.57;100.00
49567;BME280;35472;50.514;30.448;2022-08-11T00:29:14;100293.59;;;18.64;100.00
49567;BME280;35472;50.514;30.448;2022-08-11T00:31:45;100283.34;;;18.64;100.00
49567;BME280;35472;50.514;30.448;2022-08-11T00:34:12;100299.50;;;18.71;100.00
49567;BME280;35472;50.514;30.448;2022-08-11T00:36:50;100287.34;;;18.49;100.00
49567;BME280;35472;50.514;30.448;2022-08-11T00:39:19;100289.59;;;18.79;100.00
49567;BME280;35472;50.514;30.448;2022-08-11T00:58:57;100291.56;;;18.87;100.00
49567;BME280;35472;50.514;30.448;2022-08-11T01:01:41;100295.16;;;18.87;100.00
49567;BME280;35472;50.514;30.448;2022-08-11T01:10:29;100291.03;;;18.67;100.00
49567;BME280;35472;50.514;30.448;2022-08-11T01:16:07;100293.56;;;18.24;100.00
49567;BME280;35472;50.514;30.448;2022-08-11T01:30:18;100292.16;;;18.04;100.00
49567;BME280;35472;50.514;30.448;2022-08-11T01:39:30;100284.69;;;18.05;100.00
49567;BME280;35472;50.514;30.448;2022-08-11T01:42:35;100290.41;;;18.08;100.00
49567;BME280;35472;50.514;30.448;2022-08-11T01:45:37;100287.56;;;18.00;100.00
49567;BME280;35472;50.514;30.448;2022-08-11T01:52:00;100277.88;;;18.02;100.00
49567;BME280;35472;50.514;30.448;2022-08-11T01:54:36;100282.19;;;17.94;100.00
49567;BME280;35472;50.514;30.448;2022-08-11T01:59:50;100275.91;;;17.80;100.00
49567;BME280;35472;50.514;30.448;2022-08-11T02:05:46;100270.41;;;17.80;100.00
49567;BME280;35472;50.514;30.448;2022-08-11T02:08:41;100269.28;;;17.81;100.00
49567;BME280;35472;50.514;30.448;2022-08-11T02:11:31;100263.97;;;17.71;100.00
49567;BME280;35472;50.514;30.448;2022-08-11T02:16:46;100254.53;;;17.86;100.00
49567;BME280;35472;50.514;30.448;2022-08-11T02:22:12;100255.22;;;17.91;100.00
49567;BME280;35472;50.514;30.448;2022-08-11T02:25:05;100253.59;;;18.21;100.00
49567;BME280;35472;50.514;30.448;2022-08-11T02:27:42;100257.13;;;18.13;100.00
49567;BME280;35472;50.514;30.448;2022-08-11T02:30:12;100249.13;;;18.03;100.00
49567;BME280;35472;50.514;30.448;2022-08-11T02:32:47;100252.00;;;17.98;100.00
49567;BME280;35472;50.514;30.448;2022-08-11T02:36:02;100246.44;;;17.89;100.00
49567;BME280;35472;50.514;30.448;2022-08-11T02:38:47;100252.63;;;17.95;100.00
49567;BME280;35472;50.514;30.448;2022-08-11T02:44:43;100258.44;;;17.85;100.00
49567;BME280;35472;50.514;30.448;2022-08-11T02:50:29;100258.53;;;18.02;100.00
49567;BME280;35472;50.514;30.448;2022-08-11T02:53:12;100254.69;;;17.67;100.00
49567;BME280;35472;50.514;30.448;2022-08-11T03:01:22;100269.94;;;18.09;100.00
49567;BME280;35472;50.514;30.448;2022-08-11T03:04:00;100273.28;;;17.98;100.00
49567;BME280;35472;50.514;30.448;2022-08-11T03:07:30;100258.19;;;17.73;100.00
49567;BME280;35472;50.514;30.448;2022-08-11T03:12:58;100260.50;;;17.79;100.00
49567;BME280;35472;50.514;30.448;2022-08-11T03:21:41;100255.59;;;17.76;100.00
49567;BME280;35472;50.514;30.448;2022-08-11T03:24:21;100260.53;;;17.88;100.00
49567;BME280;35472;50.514;30.448;2022-08-11T03:27:10;100262.38;;;17.92;100.00
49567;BME280;35472;50.514;30.448;2022-08-11T03:32:35;100255.09;;;17.97;100.00
49567;BME280;35472;50.514;30.448;2022-08-11T03:35:04;100256.84;;;17.92;100.00
49567;BME280;35472;50.514;30.448;2022-08-11T03:37:36;100258.84;;;18.01;100.00
49567;BME280;35472;50.514;30.448;2022-08-11T03:43:23;100264.28;;;18.14;100.00
49567;BME280;35472;50.514;30.448;2022-08-11T03:49:08;100263.91;;;18.07;100.00
49567;BME280;35472;50.514;30.448;2022-08-11T03:51:47;100279.28;;;17.77;100.00
49567;BME280;35472;50.514;30.448;2022-08-11T04:12:52;100266.63;;;17.99;100.00
49567;BME280;35472;50.514;30.448;2022-08-11T04:27:28;100256.00;;;17.69;100.00
49567;BME280;35472;50.514;30.448;2022-08-11T04:30:22;100246.94;;;17.91;100.00
49567;BME280;35472;50.514;30.448;2022-08-11T04:35:38;100253.44;;;17.95;100.00
49567;BME280;35472;50.514;30.448;2022-08-11T04:53:33;100230.31;;;18.14;100.00
49567;BME280;35472;50.514;30.448;2022-08-11T04:56:27;100211.16;;;17.78;100.00
49567;BME280;35472;50.514;30.448;2022-08-11T05:02:14;100215.75;;;17.68;100.00
49567;BME280;35472;50.514;30.448;2022-08-11T05:13:07;100214.41;;;18.11;100.00
49567;BME280;35472;50.514;30.448;2022-08-11T05:15:54;100215.00;;;17.99;100.00
49567;BME280;35472;50.514;30.448;2022-08-11T05:18:47;100212.25;;;17.99;100.00
49567;BME280;35472;50.514;30.448;2022-08-11T05:21:34;100211.22;;;17.95;100.00
49567;BME280;35472;50.514;30.448;2022-08-11T05:27:08;100212.03;;;17.95;100.00
49567;BME280;35472;50.514;30.448;2022-08-11T05:30:02;100236.28;;;17.76;100.00
49567;BME280;35472;50.514;30.448;2022-08-11T05:39:01;100259.03;;;18.44;100.00
49567;BME280;35472;50.514;30.448;2022-08-11T05:41:46;100282.03;;;18.22;100.00
49567;BME280;35472;50.514;30.448;2022-08-11T05:44:34;100279.97;;;18.05;100.00
49567;BME280;35472;50.514;30.448;2022-08-11T05:47:22;100267.91;;;18.23;100.00
49567;BME280;35472;50.514;30.448;2022-08-11T05:50:12;100269.84;;;18.23;100.00
49567;BME280;35472;50.514;30.448;2022-08-11T05:52:58;100267.19;;;17.87;100.00
49567;BME280;35472;50.514;30.448;2022-08-11T05:55:43;100285.00;;;17.81;100.00
49567;BME280;35472;50.514;30.448;2022-08-11T05:58:33;100266.94;;;17.97;100.00
49567;BME280;35472;50.514;30.448;2022-08-11T06:00:59;100262.38;;;18.23;100.00
49567;BME280;35472;50.514;30.448;2022-08-11T06:03:27;100253.75;;;17.94;100.00
49567;BME280;35472;50.514;30.448;2022-08-11T06:05:53;100258.25;;;18.12;100.00
49567;BME280;35472;50.514;30.448;2022-08-11T06:08:32;100261.50;;;18.45;100.00
49567;BME280;35472;50.514;30.448;2022-08-11T06:11:04;100276.38;;;18.27;100.00
49567;BME280;35472;50.514;30.448;2022-08-11T06:13:33;100276.53;;;18.31;100.00
49567;BME280;35472;50.514;30.448;2022-08-11T06:15:59;100281.50;;;18.20;100.00
49567;BME280;35472;50.514;30.448;2022-08-11T06:18:26;100277.41;;;18.09;100.00
49567;BME280;35472;50.514;30.448;2022-08-11T06:20:54;100278.97;;;18.63;100.00
49567;BME280;35472;50.514;30.448;2022-08-11T06:23:23;100275.97;;;18.82;100.00
49567;BME280;35472;50.514;30.448;2022-08-11T06:25:52;100289.94;;;18.86;100.00
49567;BME280;35472;50.514;30.448;2022-08-11T06:28:19;100287.06;;;18.99;100.00
49567;BME280;35472;50.514;30.448;2022-08-11T06:30:55;100295.13;;;18.79;100.00
49567;BME280;35472;50.514;30.448;2022-08-11T06:36:53;100276.28;;;18.49;100.00
49567;BME280;35472;50.514;30.448;2022-08-11T06:39:26;100282.53;;;19.21;100.00
49567;BME280;35472;50.514;30.448;2022-08-11T06:42:09;100293.28;;;19.22;100.00
49567;BME280;35472;50.514;30.448;2022-08-11T06:44:54;100299.22;;;18.90;100.00
49567;BME280;35472;50.514;30.448;2022-08-11T06:47:25;100293.72;;;18.98;100.00
49567;BME280;35472;50.514;30.448;2022-08-11T06:49:54;100299.06;;;18.55;100.00
49567;BME280;35472;50.514;30.448;2022-08-11T06:52:41;100301.22;;;19.07;100.00
49567;BME280;35472;50.514;30.448;2022-08-11T06:55:20;100299.31;;;19.24;100.00
49567;BME280;35472;50.514;30.448;2022-08-11T06:58:12;100302.56;;;19.26;100.00
49567;BME280;35472;50.514;30.448;2022-08-11T07:01:00;100312.50;;;19.53;100.00
49567;BME280;35472;50.514;30.448;2022-08-11T07:03:34;100321.84;;;19.66;100.00
49567;BME280;35472;50.514;30.448;2022-08-11T07:06:32;100318.75;;;19.68;100.00
49567;BME280;35472;50.514;30.448;2022-08-11T07:09:41;100327.47;;;19.52;100.00
49567;BME280;35472;50.514;30.448;2022-08-11T07:12:39;100335.50;;;19.71;100.00
49567;BME280;35472;50.514;30.448;2022-08-11T07:15:34;100343.25;;;19.35;100.00
49567;BME280;35472;50.514;30.448;2022-08-11T07:18:07;100355.72;;;19.15;100.00
49567;BME280;35472;50.514;30.448;2022-08-11T07:21:05;100348.13;;;18.81;100.00
49567;BME280;35472;50.514;30.448;2022-08-11T07:23:53;100332.50;;;19.24;100.00
49567;BME280;35472;50.514;30.448;2022-08-11T07:26:40;100334.47;;;19.41;100.00
49567;BME280;35472;50.514;30.448;2022-08-11T07:29:28;100340.75;;;19.16;100.00
49567;BME280;35472;50.514;30.448;2022-08-11T07:31:55;100324.38;;;19.37;100.00
49567;BME280;35472;50.514;30.448;2022-08-11T07:34:35;100316.56;;;18.73;100.00
49567;BME280;35472;50.514;30.448;2022-08-11T07:37:11;100315.19;;;18.62;100.00
49567;BME280;35472;50.514;30.448;2022-08-11T07:39:41;100310.16;;;18.95;100.00
49567;BME280;35472;50.514;30.448;2022-08-11T07:42:11;100302.53;;;19.00;100.00
49567;BME280;35472;50.514;30.448;2022-08-11T07:44:40;100281.31;;;18.79;100.00
49567;BME280;35472;50.514;30.448;2022-08-11T07:47:25;100269.00;;;18.54;100.00
49567;BME280;35472;50.514;30.448;2022-08-11T07:50:10;100284.78;;;18.62;100.00
49567;BME280;35472;50.514;30.448;2022-08-11T07:52:56;100296.84;;;18.66;100.00
49567;BME280;35472;50.514;30.448;2022-08-11T07:55:23;100293.84;;;18.76;100.00
49567;BME280;35472;50.514;30.448;2022-08-11T07:57:50;100283.41;;;18.73;100.00
49567;BME280;35472;50.514;30.448;2022-08-11T08:00:39;100287.97;;;18.78;100.00
49567;BME280;35472;50.514;30.448;2022-08-11T08:03:27;100284.16;;;18.65;100.00
49567;BME280;35472;50.514;30.448;2022-08-11T08:06:12;100274.69;;;18.88;100.00
49567;BME280;35472;50.514;30.448;2022-08-11T08:08:56;100275.06;;;19.21;100.00
49567;BME280;35472;50.514;30.448;2022-08-11T08:11:40;100276.00;;;18.99;100.00
49567;BME280;35472;50.514;30.448;2022-08-11T08:14:26;100286.97;;;19.48;100.00
49567;BME280;35472;50.514;30.448;2022-08-11T08:17:10;100295.75;;;19.50;100.00
49567;BME280;35472;50.514;30.448;2022-08-11T08:19:54;100295.56;;;19.29;100.00
49567;BME280;35472;50.514;30.448;2022-08-11T08:22:20;100287.28;;;19.55;100.00
49567;BME280;35472;50.514;30.448;2022-08-11T08:24:47;100285.31;;;19.38;100.00
49567;BME280;35472;50.514;30.448;2022-08-11T08:27:14;100276.72;;;19.74;100.00
49567;BME280;35472;50.514;30.448;2022-08-11T08:29:40;100285.34;;;19.90;100.00
49567;BME280;35472;50.514;30.448;2022-08-11T08:32:27;100302.78;;;19.91;100.00
49567;BME280;35472;50.514;30.448;2022-08-11T08:34:54;100320.16;;;20.00;100.00
49567;BME280;35472;50.514;30.448;2022-08-11T08:37:23;100312.19;;;20.07;100.00
49567;BME280;35472;50.514;30.448;2022-08-11T08:39:49;100322.66;;;19.84;100.00
49567;BME280;35472;50.514;30.448;2022-08-11T08:42:38;100311.59;;;19.67;100.00
49567;BME280;35472;50.514;30.448;2022-08-11T08:45:11;100307.31;;;19.87;100.00
49567;BME280;35472;50.514;30.448;2022-08-11T08:47:40;100298.03;;;20.00;100.00
49567;BME280;35472;50.514;30.448;2022-08-11T08:50:12;100296.28;;;19.78;100.00
49567;BME280;35472;50.514;30.448;2022-08-11T08:52:44;100309.13;;;19.74;100.00
49567;BME280;35472;50.514;30.448;2022-08-11T08:55:17;100295.91;;;19.88;100.00
49567;BME280;35472;50.514;30.448;2022-08-11T08:57:44;100299.66;;;19.83;100.00
49567;BME280;35472;50.514;30.448;2022-08-11T09:00:13;100302.28;;;19.80;100.00
49567;BME280;35472;50.514;30.448;2022-08-11T09:02:40;100304.56;;;19.87;100.00
49567;BME280;35472;50.514;30.448;2022-08-11T09:05:06;100310.41;;;19.94;100.00
49567;BME280;35472;50.514;30.448;2022-08-11T09:07:34;100302.09;;;19.42;100.00
49567;BME280;35472;50.514;30.448;2022-08-11T09:10:00;100304.38;;;20.00;100.00
49567;BME280;35472;50.514;30.448;2022-08-11T09:12:28;100306.72;;;20.54;100.00
49567;BME280;35472;50.514;30.448;2022-08-11T09:14:55;100305.19;;;20.01;100.00
49567;BME280;35472;50.514;30.448;2022-08-11T09:17:32;100281.22;;;20.69;100.00
49567;BME280;35472;50.514;30.448;2022-08-11T09:20:10;100287.81;;;19.66;100.00
49567;BME280;35472;50.514;30.448;2022-08-11T09:22:38;100280.75;;;19.94;100.00
49567;BME280;35472;50.514;30.448;2022-08-11T09:25:27;100288.78;;;19.78;100.00
49567;BME280;35472;50.514;30.448;2022-08-11T09:28:14;100302.56;;;20.13;100.00
49567;BME280;35472;50.514;30.448;2022-08-11T09:30:41;100291.22;;;19.80;100.00
49567;BME280;35472;50.514;30.448;2022-08-11T09:33:08;100297.09;;;20.43;100.00
49567;BME280;35472;50.514;30.448;2022-08-11T09:35:36;100288.59;;;20.56;100.00
49567;BME280;35472;50.514;30.448;2022-08-11T09:38:04;100287.88;;;21.27;100.00
49567;BME280;35472;50.514;30.448;2022-08-11T09:40:50;100291.06;;;20.58;100.00
49567;BME280;35472;50.514;30.448;2022-08-11T09:43:17;100291.53;;;20.89;100.00
49567;BME280;35472;50.514;30.448;2022-08-11T09:46:03;100288.41;;;20.61;100.00
49567;BME280;35472;50.514;30.448;2022-08-11T09:48:30;100297.75;;;20.86;100.00
49567;BME280;35472;50.514;30.448;2022-08-11T09:51:00;100290.84;;;21.22;100.00
49567;BME280;35472;50.514;30.448;2022-08-11T09:53:30;100287.84;;;21.57;100.00
49567;BME280;35472;50.514;30.448;2022-08-11T09:55:56;100296.66;;;21.08;100.00
49567;BME280;35472;50.514;30.448;2022-08-11T09:58:23;100290.28;;;21.37;100.00
49567;BME280;35472;50.514;30.448;2022-08-11T10:00:50;100291.44;;;22.11;100.00
49567;BME280;35472;50.514;30.448;2022-08-11T10:03:20;100284.56;;;21.97;100.00
49567;BME280;35472;50.514;30.448;2022-08-11T10:05:48;100292.44;;;22.07;100.00
49567;BME280;35472;50.514;30.448;2022-08-11T10:08:40;100292.78;;;22.05;100.00
49567;BME280;35472;50.514;30.448;2022-08-11T10:11:08;100299.28;;;22.55;100.00
49567;BME280;35472;50.514;30.448;2022-08-11T10:13:42;100289.00;;;21.89;100.00
49567;BME280;35472;50.514;30.448;2022-08-11T10:16:28;100295.34;;;22.80;100.00
49567;BME280;35472;50.514;30.448;2022-08-11T10:18:55;100288.69;;;22.24;100.00
49567;BME280;35472;50.514;30.448;2022-08-11T10:21:38;100295.09;;;22.03;100.00
49567;BME280;35472;50.514;30.448;2022-08-11T10:24:06;100295.31;;;21.98;100.00
49567;BME280;35472;50.514;30.448;2022-08-11T10:26:52;100288.94;;;21.98;100.00
49567;BME280;35472;50.514;30.448;2022-08-11T10:29:29;100290.63;;;22.11;100.00
49567;BME280;35472;50.514;30.448;2022-08-11T10:32:19;100298.25;;;22.47;100.00
49567;BME280;35472;50.514;30.448;2022-08-11T10:35:04;100291.22;;;21.95;100.00
49567;BME280;35472;50.514;30.448;2022-08-11T10:37:35;100292.34;;;22.73;100.00
49567;BME280;35472;50.514;30.448;2022-08-11T10:40:02;100285.28;;;22.51;100.00
49567;BME280;35472;50.514;30.448;2022-08-11T10:42:28;100280.22;;;22.90;100.00
49567;BME280;35472;50.514;30.448;2022-08-11T10:45:14;100285.41;;;23.16;97.93
49567;BME280;35472;50.514;30.448;2022-08-11T10:48:03;100278.56;;;22.77;100.00
49567;BME280;35472;50.514;30.448;2022-08-11T10:50:29;100284.16;;;22.19;100.00
49567;BME280;35472;50.514;30.448;2022-08-11T10:53:16;100280.84;;;22.50;100.00
49567;BME280;35472;50.514;30.448;2022-08-11T10:56:02;100268.34;;;22.56;100.00
49567;BME280;35472;50.514;30.448;2022-08-11T10:58:46;100267.19;;;23.31;100.00
49567;BME280;35472;50.514;30.448;2022-08-11T11:03:48;100252.34;;;23.14;100.00
49567;BME280;35472;50.514;30.448;2022-08-11T11:09:27;100263.38;;;23.11;100.00
49567;BME280;35472;50.514;30.448;2022-08-11T11:12:06;100256.53;;;23.20;98.37
49567;BME280;35472;50.514;30.448;2022-08-11T11:14:53;100270.34;;;22.92;100.00
49567;BME280;35472;50.514;30.448;2022-08-11T11:18:20;100251.91;;;23.52;100.00
49567;BME280;35472;50.514;30.448;2022-08-11T11:21:05;100242.88;;;22.54;100.00
49567;BME280;35472;50.514;30.448;2022-08-11T11:32:31;100262.78;;;23.05;100.00
49567;BME280;35472;50.514;30.448;2022-08-11T11:35:17;100251.66;;;23.05;100.00
49567;BME280;35472;50.514;30.448;2022-08-11T11:37:49;100254.81;;;22.67;100.00
49567;BME280;35472;50.514;30.448;2022-08-11T11:40:17;100250.06;;;22.67;100.00
49567;BME280;35472;50.514;30.448;2022-08-11T11:42:52;100254.59;;;22.96;100.00
49567;BME280;35472;50.514;30.448;2022-08-11T11:45:20;100246.09;;;23.05;100.00
49567;BME280;35472;50.514;30.448;2022-08-11T11:47:48;100244.69;;;23.64;99.83
49567;BME280;35472;50.514;30.448;2022-08-11T11:50:43;100237.63;;;23.14;100.00
49567;BME280;35472;50.514;30.448;2022-08-11T11:53:10;100232.22;;;22.93;100.00
49567;BME280;35472;50.514;30.448;2022-08-11T11:55:36;100246.72;;;23.79;100.00
49567;BME280;35472;50.514;30.448;2022-08-11T11:58:03;100238.81;;;23.81;98.68
49567;BME280;35472;50.514;30.448;2022-08-11T12:00:50;100239.94;;;23.64;100.00
49567;BME280;35472;50.514;30.448;2022-08-11T12:03:35;100234.63;;;23.19;100.00
49567;BME280;35472;50.514;30.448;2022-08-11T12:06:02;100244.91;;;23.59;100.00
49567;BME280;35472;50.514;30.448;2022-08-11T12:08:29;100252.88;;;23.44;100.00
49567;BME280;35472;50.514;30.448;2022-08-11T12:11:01;100254.22;;;23.63;100.00
49567;BME280;35472;50.514;30.448;2022-08-11T12:13:47;100251.25;;;23.71;100.00
49567;BME280;35472;50.514;30.448;2022-08-11T12:16:15;100243.66;;;24.28;98.16
49567;BME280;35472;50.514;30.448;2022-08-11T12:18:42;100253.47;;;24.38;96.43
49567;BME280;35472;50.514;30.448;2022-08-11T12:21:10;100244.72;;;24.23;97.33
49567;BME280;35472;50.514;30.448;2022-08-11T12:23:39;100243.25;;;23.98;97.29
49567;BME280;35472;50.514;30.448;2022-08-11T12:26:24;100247.63;;;23.83;98.87
49567;BME280;35472;50.514;30.448;2022-08-11T12:29:10;100250.63;;;24.34;96.13
49567;BME280;35472;50.514;30.448;2022-08-11T12:31:38;100241.84;;;24.83;93.68
49567;BME280;35472;50.514;30.448;2022-08-11T12:34:14;100249.56;;;24.26;97.73
49567;BME280;35472;50.514;30.448;2022-08-11T12:36:59;100242.66;;;24.68;97.13
49567;BME280;35472;50.514;30.448;2022-08-11T12:39:33;100243.69;;;24.59;96.11
49567;BME280;35472;50.514;30.448;2022-08-11T12:42:19;100245.81;;;24.50;97.28
49567;BME280;35472;50.514;30.448;2022-08-11T12:45:10;100251.94;;;24.72;96.90
49567;BME280;35472;50.514;30.448;2022-08-11T12:47:56;100256.28;;;25.04;95.80
49567;BME280;35472;50.514;30.448;2022-08-11T12:50:42;100262.38;;;24.43;98.73
49567;BME280;35472;50.514;30.448;2022-08-11T12:53:30;100258.56;;;24.20;99.16
49567;BME280;35472;50.514;30.448;2022-08-11T12:56:02;100258.56;;;24.04;99.54
49567;BME280;35472;50.514;30.448;2022-08-11T12:58:48;100267.31;;;23.10;100.00
49567;BME280;35472;50.514;30.448;2022-08-11T13:01:16;100263.25;;;23.19;100.00
49567;BME280;35472;50.514;30.448;2022-08-11T13:04:03;100265.13;;;23.03;100.00
49567;BME280;35472;50.514;30.448;2022-08-11T13:06:48;100255.44;;;23.37;100.00
49567;BME280;35472;50.514;30.448;2022-08-11T13:09:16;100258.53;;;23.08;100.00
49567;BME280;35472;50.514;30.448;2022-08-11T13:11:43;100251.41;;;23.22;100.00
49567;BME280;35472;50.514;30.448;2022-08-11T13:14:29;100250.59;;;23.22;100.00
49567;BME280;35472;50.514;30.448;2022-08-11T13:16:57;100255.94;;;23.67;100.00
49567;BME280;35472;50.514;30.448;2022-08-11T13:19:42;100250.19;;;23.36;100.00
49567;BME280;35472;50.514;30.448;2022-08-11T13:22:10;100253.72;;;23.73;100.00
49567;BME280;35472;50.514;30.448;2022-08-11T13:24:36;100236.97;;;23.45;100.00
49567;BME280;35472;50.514;30.448;2022-08-11T13:27:02;100248.34;;;23.80;100.00
49567;BME280;35472;50.514;30.448;2022-08-11T13:29:28;100239.00;;;23.88;100.00
49567;BME280;35472;50.514;30.448;2022-08-11T13:31:56;100232.03;;;24.10;100.00
49567;BME280;35472;50.514;30.448;2022-08-11T13:34:25;100232.31;;;24.05;100.00
49567;BME280;35472;50.514;30.448;2022-08-11T13:36:57;100237.19;;;23.80;100.00
49567;BME280;35472;50.514;30.448;2022-08-11T13:39:26;100244.38;;;23.81;100.00
49567;BME280;35472;50.514;30.448;2022-08-11T13:41:54;100247.69;;;24.15;99.18
49567;BME280;35472;50.514;30.448;2022-08-11T13:44:20;100241.75;;;24.32;97.51
49567;BME280;35472;50.514;30.448;2022-08-11T13:46:47;100230.56;;;24.00;100.00
49567;BME280;35472;50.514;30.448;2022-08-11T13:49:15;100239.38;;;24.46;97.26
49567;BME280;35472;50.514;30.448;2022-08-11T13:51:41;100243.84;;;24.51;97.39
49567;BME280;35472;50.514;30.448;2022-08-11T13:54:15;100242.75;;;24.55;96.47
49567;BME280;35472;50.514;30.448;2022-08-11T13:56:46;100247.25;;;24.76;95.06
49567;BME280;35472;50.514;30.448;2022-08-11T13:59:14;100248.84;;;24.93;93.57
49567;BME280;35472;50.514;30.448;2022-08-11T14:01:47;100251.03;;;24.68;95.73
49567;BME280;35472;50.514;30.448;2022-08-11T14:04:20;100244.91;;;24.62;95.36
49567;BME280;35472;50.514;30.448;2022-08-11T14:06:51;100246.13;;;24.45;98.71
49567;BME280;35472;50.514;30.448;2022-08-11T14:09:25;100259.28;;;24.17;97.35
49567;BME280;35472;50.514;30.448;2022-08-11T14:11:56;100262.41;;;23.99;97.88
49567;BME280;35472;50.514;30.448;2022-08-11T14:14:42;100249.66;;;24.30;95.89
49567;BME280;35472;50.514;30.448;2022-08-11T14:17:08;100249.34;;;23.88;98.38
49567;BME280;35472;50.514;30.448;2022-08-11T14:19:38;100255.06;;;24.23;97.35
49567;BME280;35472;50.514;30.448;2022-08-11T14:22:05;100250.34;;;24.39;95.07
49567;BME280;35472;50.514;30.448;2022-08-11T14:24:39;100251.19;;;24.12;96.72
49567;BME280;35472;50.514;30.448;2022-08-11T14:27:07;100241.16;;;24.39;94.90
49567;BME280;35472;50.514;30.448;2022-08-11T14:29:34;100252.00;;;24.12;96.37
49567;BME280;35472;50.514;30.448;2022-08-11T14:32:05;100247.44;;;24.67;94.48
49567;BME280;35472;50.514;30.448;2022-08-11T14:34:33;100243.50;;;25.19;91.33
49567;BME280;35472;50.514;30.448;2022-08-11T14:37:25;100238.25;;;24.67;94.18
49567;BME280;35472;50.514;30.448;2022-08-11T14:39:58;100232.91;;;25.09;91.47
49567;BME280;35472;50.514;30.448;2022-08-11T14:42:45;100232.41;;;24.72;93.61
49567;BME280;35472;50.514;30.448;2022-08-11T14:45:29;100242.47;;;25.27;91.41
49567;BME280;35472;50.514;30.448;2022-08-11T14:48:13;100236.34;;;24.86;93.54
49567;BME280;35472;50.514;30.448;2022-08-11T14:50:39;100234.06;;;25.08;93.42
49567;BME280;35472;50.514;30.448;2022-08-11T14:53:10;100230.34;;;24.69;96.20
49567;BME280;35472;50.514;30.448;2022-08-11T14:55:38;100229.72;;;24.59;97.09
49567;BME280;35472;50.514;30.448;2022-08-11T14:58:27;100223.19;;;24.52;97.23
49567;BME280;35472;50.514;30.448;2022-08-11T15:00:56;100223.72;;;24.93;95.12
49567;BME280;35472;50.514;30.448;2022-08-11T15:03:24;100225.94;;;24.68;96.14
49567;BME280;35472;50.514;30.448;2022-08-11T15:05:51;100225.22;;;24.71;95.38
49567;BME280;35472;50.514;30.448;2022-08-11T15:08:18;100220.28;;;24.48;96.83
49567;BME280;35472;50.514;30.448;2022-08-11T15:10:45;100226.38;;;24.22;98.13
49567;BME280;35472;50.514;30.448;2022-08-11T15:13:15;100227.22;;;24.54;96.86
49567;BME280;35472;50.514;30.448;2022-08-11T15:15:42;100232.16;;;24.61;96.76
49567;BME280;35472;50.514;30.448;2022-08-11T15:18:28;100232.94;;;24.77;95.62
49567;BME280;35472;50.514;30.448;2022-08-11T15:20:54;100232.41;;;24.72;95.75
49567;BME280;35472;50.514;30.448;2022-08-11T15:23:39;100232.66;;;24.19;98.68
49567;BME280;35472;50.514;30.448;2022-08-11T15:26:39;100235.66;;;24.42;98.71
49567;BME280;35472;50.514;30.448;2022-08-11T15:29:28;100229.47;;;24.49;97.20
49567;BME280;35472;50.514;30.448;2022-08-11T15:32:14;100245.47;;;24.36;98.59
49567;BME280;35472;50.514;30.448;2022-08-11T15:34:54;100233.28;;;24.13;99.37
49567;BME280;35472;50.514;30.448;2022-08-11T15:37:41;100242.56;;;24.32;99.16
49567;BME280;35472;50.514;30.448;2022-08-11T15:40:24;100227.09;;;24.19;100.00
49567;BME280;35472;50.514;30.448;2022-08-11T15:46:11;100230.63;;;24.64;97.93
49567;BME280;35472;50.514;30.448;2022-08-11T15:48:56;100238.56;;;24.46;99.23
49567;BME280;35472;50.514;30.448;2022-08-11T15:51:35;100237.16;;;24.24;100.00
49567;BME280;35472;50.514;30.448;2022-08-11T15:54:07;100228.53;;;24.76;98.21
49567;BME280;35472;50.514;30.448;2022-08-11T15:56:35;100225.50;;;24.50;99.98
49567;BME280;35472;50.514;30.448;2022-08-11T15:59:02;100233.06;;;24.49;99.98
49567;BME280;35472;50.514;30.448;2022-08-11T16:01:49;100220.28;;;24.64;100.00
49567;BME280;35472;50.514;30.448;2022-08-11T16:04:35;100227.16;;;24.07;100.00
49567;BME280;35472;50.514;30.448;2022-08-11T16:07:06;100215.59;;;24.05;100.00
49567;BME280;35472;50.514;30.448;2022-08-11T16:09:45;100209.28;;;23.92;100.00
49567;BME280;35472;50.514;30.448;2022-08-11T16:12:14;100225.72;;;23.97;100.00
49567;BME280;35472;50.514;30.448;2022-08-11T16:14:47;100212.44;;;23.63;100.00
49567;BME280;35472;50.514;30.448;2022-08-11T16:17:36;100220.75;;;23.75;100.00
49567;BME280;35472;50.514;30.448;2022-08-11T16:20:02;100215.97;;;23.75;100.00
49567;BME280;35472;50.514;30.448;2022-08-11T16:22:32;100215.56;;;23.61;100.00
49567;BME280;35472;50.514;30.448;2022-08-11T16:25:04;100216.09;;;23.79;100.00